createdAt,value
2022-12-08T00:02:13.898Z,96064.72
2022-12-08T00:04:59.286Z,96063.59
2022-12-08T00:07:44.179Z,96060.53
2022-12-08T00:10:46.720Z,96061.78
2022-12-08T00:12:57.195Z,96053.41
2022-12-08T00:15:23.703Z,96052.47
2022-12-08T00:17:50.179Z,96058.34
2022-12-08T00:20:16.869Z,96058.78
2022-12-08T00:22:43.293Z,96060.03
2022-12-08T00:25:09.890Z,96057.88
2022-12-08T00:27:36.518Z,96049.25
2022-12-08T00:30:03.078Z,96055.94
2022-12-08T00:32:29.722Z,96057.09
2022-12-08T00:34:56.160Z,96045.31
2022-12-08T00:37:22.664Z,96051.09
2022-12-08T00:39:49.180Z,96052.78
2022-12-08T00:42:15.850Z,96054.38
2022-12-08T00:44:44.699Z,96053.16
2022-12-08T00:47:12.870Z,96046.09
2022-12-08T00:49:39.848Z,96051.59
2022-12-08T00:52:06.502Z,96052.28
2022-12-08T00:54:33.039Z,96048.59
2022-12-08T00:56:59.615Z,96051.19
2022-12-08T00:59:26.090Z,96041.47
2022-12-08T01:01:52.734Z,96048.03
2022-12-08T01:04:19.890Z,96048.13
2022-12-08T01:06:46.694Z,96054.19
2022-12-08T01:09:14.768Z,96054.19
2022-12-08T01:11:41.914Z,96042.72
2022-12-08T01:14:08.500Z,96049.72
2022-12-08T01:16:36.874Z,96047.13
2022-12-08T01:19:04.452Z,96048.97
2022-12-08T01:21:30.955Z,96052.56
2022-12-08T01:24:00.127Z,96049.94
2022-12-08T01:26:26.692Z,96048.72
2022-12-08T01:28:53.251Z,96048.16
2022-12-08T01:31:21.756Z,96043.88
2022-12-08T01:33:49.317Z,96046.31
2022-12-08T01:36:24.686Z,96042.72
2022-12-08T01:38:51.984Z,96052.88
2022-12-08T01:41:20.919Z,96050.28
2022-12-08T01:43:56.427Z,96049.63
2022-12-08T01:46:23.849Z,96043.38
2022-12-08T01:48:58.960Z,96037.00
2022-12-08T01:51:26.134Z,96038.94
2022-12-08T01:53:53.020Z,96035.88
2022-12-08T01:56:37.727Z,96034.66
2022-12-08T01:59:04.308Z,96033.72
2022-12-08T02:01:30.785Z,96022.31
2022-12-08T02:03:59.680Z,96033.53
2022-12-08T02:06:28.659Z,96022.66
2022-12-08T02:08:55.961Z,96025.59
2022-12-08T02:11:22.562Z,96021.81
2022-12-08T02:13:52.934Z,96023.06
2022-12-08T02:16:34.674Z,96031.78
2022-12-08T02:19:31.136Z,96025.41
2022-12-08T02:21:58.108Z,96022.97
2022-12-08T02:24:37.100Z,96018.69
2022-12-08T02:27:09.736Z,96019.47
2022-12-08T02:30:00.919Z,96024.09
2022-12-08T02:33:01.320Z,96016.69
2022-12-08T02:35:32.188Z,96007.44
2022-12-08T02:38:25.356Z,96000.06
2022-12-08T02:41:03.776Z,96009.78
2022-12-08T02:43:39.599Z,95991.41
2022-12-08T02:46:11.434Z,95993.91
2022-12-08T02:48:38.506Z,95994.06
2022-12-08T02:51:05.557Z,95988.44
2022-12-08T02:53:35.117Z,96002.47
2022-12-08T02:56:11.105Z,95992.94
2022-12-08T02:58:46.851Z,95995.66
2022-12-08T03:01:44.780Z,95991.38
2022-12-08T03:04:26.492Z,95983.31
2022-12-08T03:07:07.448Z,95990.88
2022-12-08T03:09:43.646Z,95995.41
2022-12-08T03:12:14.744Z,95987.28
2022-12-08T03:14:47.093Z,95976.63
2022-12-08T03:17:16.996Z,95979.94
2022-12-08T03:19:45.992Z,95972.13
2022-12-08T03:22:14.973Z,95971.31
2022-12-08T03:24:44.898Z,95971.19
2022-12-08T03:27:16.786Z,95970.19
2022-12-08T03:29:43.764Z,95973.78
2022-12-08T03:32:23.490Z,95975.25
2022-12-08T03:34:51.652Z,95972.38
2022-12-08T03:37:18.290Z,95971.00
2022-12-08T03:39:45.019Z,95965.19
2022-12-08T03:42:11.742Z,95973.66
2022-12-08T03:44:38.151Z,95963.50
2022-12-08T03:47:04.765Z,95960.09
2022-12-08T03:49:31.285Z,95959.94
2022-12-08T03:51:57.769Z,95954.97
2022-12-08T03:54:24.414Z,95952.16
2022-12-08T03:56:50.910Z,95951.38
2022-12-08T03:59:17.419Z,95955.22
2022-12-08T04:01:43.938Z,95947.16
2022-12-08T04:04:10.416Z,95956.16
2022-12-08T04:06:36.977Z,95956.84
2022-12-08T04:09:03.747Z,95951.34
2022-12-08T04:11:30.261Z,95956.34
2022-12-08T04:13:56.777Z,95947.50
2022-12-08T04:16:25.249Z,95945.88
2022-12-08T04:18:52.347Z,95948.53
2022-12-08T04:21:19.371Z,95946.03
2022-12-08T04:23:46.406Z,95942.16
2022-12-08T04:26:13.814Z,95940.47
2022-12-08T04:28:40.264Z,95936.75
2022-12-08T04:31:06.908Z,95935.00
2022-12-08T04:33:35.158Z,95936.69
2022-12-08T04:36:02.704Z,95943.25
2022-12-08T04:38:29.265Z,95949.06
2022-12-08T04:40:55.716Z,95945.03
2022-12-08T04:43:22.188Z,95934.47
2022-12-08T04:45:48.715Z,95935.19
2022-12-08T04:48:15.496Z,95941.41
2022-12-08T04:50:43.679Z,95936.41
2022-12-08T04:53:11.885Z,95939.75
2022-12-08T04:55:44.112Z,95937.56
2022-12-08T04:58:15.783Z,95942.25
2022-12-08T05:00:42.802Z,95934.31
2022-12-08T05:03:09.926Z,95937.94
2022-12-08T05:05:36.529Z,95936.69
2022-12-08T05:08:03.334Z,95937.56
2022-12-08T05:10:29.990Z,95940.84
2022-12-08T05:12:58.286Z,95933.31
2022-12-08T05:15:24.906Z,95938.19
2022-12-08T05:17:51.379Z,95941.91
2022-12-08T05:20:18.101Z,95941.13
2022-12-08T05:22:44.600Z,95942.56
2022-12-08T05:25:12.202Z,95932.97
2022-12-08T05:27:38.711Z,95928.91
2022-12-08T05:30:06.303Z,95934.91
2022-12-08T05:32:32.948Z,95933.59
2022-12-08T05:34:59.444Z,95932.66
2022-12-08T05:37:25.975Z,95943.19
2022-12-08T05:39:52.489Z,95939.97
2022-12-08T05:42:24.436Z,95937.81
2022-12-08T05:44:51.342Z,95936.47
2022-12-08T05:47:17.898Z,95937.53
2022-12-08T05:49:44.971Z,95939.44
2022-12-08T05:52:11.581Z,95941.66
2022-12-08T05:54:38.590Z,95939.13
2022-12-08T05:57:05.100Z,95941.66
2022-12-08T05:59:31.598Z,95938.59
2022-12-08T06:01:58.141Z,95931.75
2022-12-08T06:04:24.651Z,95938.31
2022-12-08T06:06:51.090Z,95931.50
2022-12-08T06:09:17.476Z,95936.19
2022-12-08T06:11:46.409Z,95941.97
2022-12-08T06:14:12.984Z,95937.53
2022-12-08T06:16:40.011Z,95946.25
2022-12-08T06:19:06.650Z,95938.31
2022-12-08T06:21:33.126Z,95934.38
2022-12-08T06:23:59.708Z,95938.50
2022-12-08T06:26:26.220Z,95942.25
2022-12-08T06:28:52.785Z,95930.88
2022-12-08T06:31:23.053Z,95932.22
2022-12-08T06:33:50.193Z,95935.31
2022-12-08T06:36:18.507Z,95940.16
2022-12-08T06:38:45.122Z,95940.09
2022-12-08T06:41:12.719Z,95948.97
2022-12-08T06:43:39.518Z,95942.44
2022-12-08T06:46:09.472Z,95937.56
2022-12-08T06:48:36.164Z,95943.13
2022-12-08T06:51:14.424Z,95937.75
2022-12-08T06:53:42.182Z,95945.09
2022-12-08T06:56:09.683Z,95936.50
2022-12-08T06:58:36.612Z,95950.19
2022-12-08T07:01:09.684Z,95952.19
2022-12-08T07:03:36.804Z,95953.53
2022-12-08T07:06:04.408Z,95955.63
2022-12-08T07:08:32.235Z,95955.75
2022-12-08T07:10:59.095Z,95956.78
2022-12-08T07:13:25.616Z,95961.41
2022-12-08T07:15:52.254Z,95962.25
2022-12-08T07:18:18.813Z,95960.78
2022-12-08T07:20:45.385Z,95959.34
2022-12-08T07:23:11.942Z,95957.31
2022-12-08T07:25:38.366Z,95957.56
2022-12-08T07:28:09.325Z,95956.59
2022-12-08T07:30:35.815Z,95959.63
2022-12-08T07:33:04.534Z,95949.31
2022-12-08T07:35:31.031Z,95958.75
2022-12-08T07:37:57.765Z,95963.97
2022-12-08T07:40:24.403Z,95955.91
2022-12-08T07:42:50.909Z,95963.06
2022-12-08T07:45:18.592Z,95957.28
2022-12-08T07:47:45.026Z,95952.63
2022-12-08T07:50:12.149Z,95947.75
2022-12-08T07:52:38.617Z,95947.50
2022-12-08T07:55:05.646Z,95947.03
2022-12-08T07:57:32.156Z,95945.16
2022-12-08T07:59:58.621Z,95952.31
2022-12-08T08:02:26.268Z,95955.81
2022-12-08T08:04:53.389Z,95953.22
2022-12-08T08:07:20.104Z,95950.06
2022-12-08T08:09:46.613Z,95942.13
2022-12-08T08:15:01.035Z,95949.34
2022-12-08T08:17:28.534Z,95948.91
2022-12-08T08:19:55.186Z,95939.81
2022-12-08T08:22:21.615Z,95942.22
2022-12-08T08:24:48.012Z,95939.72
2022-12-08T08:27:14.593Z,95946.97
2022-12-08T08:29:41.011Z,95937.31
2022-12-08T08:32:07.486Z,95939.91
2022-12-08T08:34:34.036Z,95938.53
2022-12-08T08:37:00.646Z,95942.38
2022-12-08T08:39:27.509Z,95952.56
2022-12-08T08:41:53.989Z,95940.81
2022-12-08T08:44:23.662Z,95950.78
2022-12-08T08:46:50.260Z,95942.56
2022-12-08T08:49:16.843Z,95947.91
2022-12-08T08:51:43.820Z,95945.97
2022-12-08T08:54:14.949Z,95943.19
2022-12-08T08:56:41.665Z,95939.19
2022-12-08T08:59:09.634Z,95943.56
2022-12-08T09:01:36.235Z,95940.47
2022-12-08T09:04:02.773Z,95926.72
2022-12-08T09:06:35.062Z,95929.66
2022-12-08T09:09:01.630Z,95929.25
2022-12-08T09:11:28.046Z,95932.44
2022-12-08T09:13:54.981Z,95927.44
2022-12-08T09:16:22.404Z,95934.25
2022-12-08T09:18:52.017Z,95932.75
2022-12-08T09:21:24.040Z,95931.19
2022-12-08T09:23:56.319Z,95930.78
2022-12-08T09:26:24.440Z,95929.06
2022-12-08T09:28:52.863Z,95927.25
2022-12-08T09:31:21.846Z,95922.34
2022-12-08T09:33:51.817Z,95925.84
2022-12-08T09:36:18.324Z,95919.81
2022-12-08T09:38:44.864Z,95924.03
2022-12-08T09:41:20.460Z,95918.88
2022-12-08T09:44:07.230Z,95910.78
2022-12-08T09:46:35.609Z,95905.56
2022-12-08T09:49:03.331Z,95898.00
2022-12-08T09:51:40.407Z,95900.81
2022-12-08T09:54:19.391Z,95903.81
2022-12-08T09:56:47.342Z,95899.72
2022-12-08T09:59:49.413Z,95894.78
2022-12-08T10:02:22.977Z,95902.72
2022-12-08T10:04:49.516Z,95897.97
2022-12-08T10:07:41.178Z,95898.25
2022-12-08T10:10:36.630Z,95894.84
2022-12-08T10:13:16.161Z,95893.75
2022-12-08T10:16:00.988Z,95885.13
2022-12-08T10:18:31.712Z,95886.81
2022-12-08T10:21:11.536Z,95877.00
2022-12-08T10:23:40.952Z,95874.22
2022-12-08T10:26:12.641Z,95866.38
2022-12-08T10:28:44.666Z,95866.03
2022-12-08T10:31:17.270Z,95868.56
2022-12-08T10:33:44.490Z,95866.00
2022-12-08T10:36:11.646Z,95874.97
2022-12-08T10:38:42.659Z,95875.81
2022-12-08T10:41:09.011Z,95878.94
2022-12-08T10:43:44.396Z,95879.75
2022-12-08T10:46:15.999Z,95866.75
2022-12-08T10:48:52.212Z,95867.88
2022-12-08T10:51:35.050Z,95872.09
2022-12-08T10:54:01.977Z,95871.38
2022-12-08T10:56:32.490Z,95866.97
2022-12-08T10:59:06.644Z,95869.09
2022-12-08T11:01:37.744Z,95859.34
2022-12-08T11:04:07.327Z,95857.56
2022-12-08T11:06:39.085Z,95850.88
2022-12-08T11:09:17.455Z,95855.59
2022-12-08T11:11:54.179Z,95854.56
2022-12-08T11:14:26.561Z,95845.63
2022-12-08T11:16:56.004Z,95847.19
2022-12-08T11:19:27.733Z,95844.34
2022-12-08T11:21:54.495Z,95849.88
2022-12-08T11:24:22.626Z,95848.31
2022-12-08T11:27:00.611Z,95849.38
2022-12-08T11:29:32.753Z,95848.69
2022-12-08T11:32:12.271Z,95843.25
2022-12-08T11:34:44.491Z,95845.09
2022-12-08T11:37:35.536Z,95844.41
2022-12-08T11:40:08.436Z,95850.78
2022-12-08T11:42:40.191Z,95837.09
2022-12-08T11:45:14.126Z,95823.03
2022-12-08T11:47:48.996Z,95822.31
2022-12-08T11:50:25.595Z,95813.13
2022-12-08T11:52:52.101Z,95810.31
2022-12-08T11:55:37.124Z,95803.00
2022-12-08T11:58:15.075Z,95794.31
2022-12-08T12:00:41.775Z,95790.66
2022-12-08T12:03:36.602Z,95792.22
2022-12-08T12:06:46.324Z,95787.22
2022-12-08T12:09:23.983Z,95785.94
2022-12-08T12:12:19.090Z,95785.44
2022-12-08T12:15:29.953Z,95785.00
2022-12-08T12:18:05.348Z,95789.19
2022-12-08T12:20:42.805Z,95789.97
2022-12-08T12:23:24.915Z,95787.88
2022-12-08T12:25:57.996Z,95790.75
2022-12-08T12:28:27.900Z,95791.31
2022-12-08T12:31:02.092Z,95789.22
2022-12-08T12:33:31.642Z,95778.50
2022-12-08T12:36:03.503Z,95768.78
2022-12-08T12:38:54.036Z,95768.78
2022-12-08T12:41:31.262Z,95777.44
2022-12-08T12:44:12.931Z,95770.88
2022-12-08T12:46:48.740Z,95767.19
2022-12-08T12:49:53.992Z,95766.94
2022-12-08T12:52:23.556Z,95767.19
2022-12-08T12:54:49.871Z,95758.31
2022-12-08T12:57:21.860Z,95753.31
2022-12-08T12:59:55.273Z,95755.16
2022-12-08T13:02:25.255Z,95757.28
2022-12-08T13:05:01.983Z,95754.66
2022-12-08T13:07:33.392Z,95744.69
2022-12-08T13:10:39.660Z,95748.41
2022-12-08T13:13:18.127Z,95750.50
2022-12-08T13:15:54.301Z,95749.69
2022-12-08T13:18:25.494Z,95748.13
2022-12-08T13:21:09.340Z,95741.59
2022-12-08T13:23:48.428Z,95738.22
2022-12-08T13:26:28.990Z,95730.06
2022-12-08T13:31:29.318Z,95735.03
2022-12-08T13:36:13.253Z,95732.97
2022-12-08T13:38:45.987Z,95744.25
2022-12-08T13:42:35.153Z,95733.22
2022-12-08T13:45:39.785Z,95750.00
2022-12-08T13:48:25.609Z,95753.38
2022-12-08T13:54:56.034Z,95741.09
2022-12-08T13:57:07.115Z,95732.44
2022-12-08T13:59:34.352Z,95737.44
2022-12-08T14:02:22.355Z,95721.19
2022-12-08T14:07:37.969Z,95735.84
2022-12-08T14:10:24.339Z,95745.34
2022-12-08T14:13:03.040Z,95735.09
2022-12-08T14:15:37.210Z,95739.03
2022-12-08T14:18:04.880Z,95731.69
2022-12-08T14:20:46.549Z,95730.59
2022-12-08T14:23:19.955Z,95734.25
2022-12-08T14:25:48.296Z,95732.38
2022-12-08T14:28:15.040Z,95724.25
2022-12-08T14:30:41.750Z,95733.16
2022-12-08T14:34:11.126Z,95735.75
2022-12-08T14:42:52.640Z,95735.69
2022-12-08T14:49:26.223Z,95724.66
2022-12-08T14:51:52.748Z,95723.59
2022-12-08T14:57:03.747Z,95704.69
2022-12-08T15:03:15.891Z,95710.91
2022-12-08T15:05:43.296Z,95705.59
2022-12-08T15:08:13.099Z,95714.50
2022-12-08T15:16:03.217Z,95701.78
2022-12-08T15:26:19.502Z,95716.56
2022-12-08T15:32:32.870Z,95711.47
2022-12-08T15:34:52.923Z,95720.94
2022-12-08T15:37:41.623Z,95718.22
2022-12-08T15:40:49.714Z,95723.78
2022-12-08T15:48:09.033Z,95727.03
2022-12-08T15:51:28.201Z,95754.22
2022-12-08T16:01:08.678Z,95772.06
2022-12-08T16:14:48.815Z,95758.69
2022-12-08T16:24:12.698Z,95779.50
2022-12-08T16:41:13.643Z,95780.06
2022-12-08T16:43:40.254Z,95791.16
2022-12-08T16:46:06.752Z,95784.78
2022-12-08T16:48:33.276Z,95787.41
2022-12-08T16:50:59.877Z,95785.22
2022-12-08T16:53:26.496Z,95793.66
2022-12-08T16:55:53.314Z,95785.28
2022-12-08T16:58:20.133Z,95778.88
2022-12-08T17:00:47.076Z,95789.63
2022-12-08T17:04:07.483Z,95783.31
2022-12-08T17:06:35.831Z,95786.31
2022-12-08T17:09:02.553Z,95795.59
2022-12-08T17:14:44.234Z,95796.25
2022-12-08T17:17:14.451Z,95805.06
2022-12-08T17:19:40.957Z,95796.28
2022-12-08T17:22:07.667Z,95813.13
2022-12-08T17:24:34.327Z,95807.78
2022-12-08T17:27:17.750Z,95803.19
2022-12-08T17:29:44.287Z,95803.81
2022-12-08T17:32:51.531Z,95793.47
2022-12-08T17:35:16.279Z,95789.56
2022-12-08T17:37:43.803Z,95787.59
2022-12-08T17:40:10.877Z,95799.00
2022-12-08T17:42:41.580Z,95794.63
2022-12-08T17:45:11.206Z,95792.09
2022-12-08T17:47:38.080Z,95791.78
2022-12-08T17:50:06.585Z,95772.47
2022-12-08T17:52:35.936Z,95768.69
2022-12-08T17:55:22.812Z,95779.91
2022-12-08T17:57:49.415Z,95769.47
2022-12-08T18:00:16.222Z,95769.31
2022-12-08T18:02:42.853Z,95772.88
2022-12-08T18:05:09.724Z,95785.06
2022-12-08T18:07:36.246Z,95798.59
2022-12-08T18:10:04.280Z,95789.88
2022-12-08T18:12:31.262Z,95791.22
2022-12-08T18:14:57.794Z,95785.38
2022-12-08T18:17:24.517Z,95771.69
2022-12-08T18:19:51.216Z,95761.75
2022-12-08T18:22:17.816Z,95768.44
2022-12-08T18:24:44.659Z,95767.59
2022-12-08T18:27:11.280Z,95772.00
2022-12-08T18:29:38.918Z,95779.59
2022-12-08T18:32:05.920Z,95777.38
2022-12-08T18:34:32.787Z,95779.28
2022-12-08T18:36:59.622Z,95774.16
2022-12-08T18:39:28.883Z,95768.84
2022-12-08T18:41:57.298Z,95766.63
2022-12-08T18:44:23.738Z,95753.03
2022-12-08T18:46:50.470Z,95755.56
2022-12-08T18:49:19.105Z,95759.19
2022-12-08T18:51:46.103Z,95744.03
2022-12-08T18:54:13.344Z,95751.69
2022-12-08T18:56:40.176Z,95747.50
2022-12-08T18:59:10.390Z,95749.25
2022-12-08T19:01:39.113Z,95755.72
2022-12-08T19:06:55.589Z,95765.81
2022-12-08T19:09:22.702Z,95762.13
2022-12-08T19:11:49.186Z,95768.69
2022-12-08T19:14:15.616Z,95763.38
2022-12-08T19:16:42.111Z,95775.31
2022-12-08T19:19:08.508Z,95779.38
2022-12-08T19:21:35.099Z,95776.50
2022-12-08T19:24:02.231Z,95772.50
2022-12-08T19:26:28.889Z,95770.03
2022-12-08T19:28:55.387Z,95773.66
2022-12-08T19:31:22.141Z,95774.28
2022-12-08T19:33:48.778Z,95767.75
2022-12-08T19:36:18.072Z,95764.66
2022-12-08T19:39:03.660Z,95765.66
2022-12-08T19:41:48.571Z,95767.66
2022-12-08T19:44:32.835Z,95767.50
2022-12-08T19:46:59.466Z,95769.22
2022-12-08T19:49:26.028Z,95761.25
2022-12-08T19:51:52.560Z,95760.63
2022-12-08T19:54:19.100Z,95765.84
2022-12-08T19:56:45.589Z,95761.56
2022-12-08T19:59:13.366Z,95772.16
2022-12-08T20:01:39.845Z,95755.66
2022-12-08T20:04:06.369Z,95759.69
2022-12-08T20:06:32.846Z,95777.00
2022-12-08T20:09:00.364Z,95778.50
2022-12-08T20:11:26.829Z,95765.63
2022-12-08T20:13:53.366Z,95766.47
2022-12-08T20:16:20.002Z,95763.16
2022-12-08T20:18:48.492Z,95768.38
2022-12-08T20:21:15.184Z,95766.78
2022-12-08T20:23:41.577Z,95755.97
2022-12-08T20:26:11.948Z,95753.03
2022-12-08T20:28:38.711Z,95752.84
2022-12-08T20:31:05.546Z,95749.84
2022-12-08T20:33:34.325Z,95747.16
2022-12-08T20:36:03.718Z,95751.78
2022-12-08T20:38:30.644Z,95746.97
2022-12-08T20:40:58.250Z,95738.94
2022-12-08T20:43:25.507Z,95727.44
2022-12-08T20:45:51.965Z,95724.41
2022-12-08T20:48:18.542Z,95726.75
2022-12-08T20:50:45.093Z,95726.94
2022-12-08T20:53:11.614Z,95731.59
2022-12-08T20:55:41.996Z,95732.50
2022-12-08T20:58:34.487Z,95730.41
2022-12-08T21:01:23.213Z,95730.75
2022-12-08T21:06:55.735Z,95747.03
2022-12-08T21:12:48.866Z,95739.59
2022-12-08T21:15:49.544Z,95750.81
2022-12-08T21:21:31.420Z,95749.38
2022-12-08T21:27:40.324Z,95757.44
2022-12-08T21:30:33.087Z,95751.13
2022-12-08T21:33:25.878Z,95737.22
2022-12-08T21:39:15.032Z,95736.91
2022-12-08T21:42:00.341Z,95736.50
2022-12-08T21:44:44.148Z,95736.50
2022-12-08T21:50:02.307Z,95734.81
2022-12-08T21:52:28.864Z,95734.16
2022-12-08T21:54:55.523Z,95741.63
2022-12-08T21:57:22.208Z,95738.38
2022-12-08T21:59:48.798Z,95744.88
2022-12-08T22:02:20.829Z,95754.78
2022-12-08T22:04:49.990Z,95751.09
2022-12-08T22:07:17.059Z,95753.81
2022-12-08T22:09:43.776Z,95750.63
2022-12-08T22:12:11.888Z,95749.22
2022-12-08T22:14:39.947Z,95761.88
2022-12-08T22:17:07.188Z,95750.81
2022-12-08T22:19:34.144Z,95766.28
2022-12-08T22:22:01.086Z,95777.22
2022-12-08T22:24:30.255Z,95771.53
2022-12-08T22:26:56.787Z,95785.84
2022-12-08T22:29:23.364Z,95784.50
2022-12-08T22:31:49.995Z,95782.13
2022-12-08T22:34:16.690Z,95770.97
2022-12-08T22:36:44.420Z,95779.13
2022-12-08T22:39:11.130Z,95769.78
2022-12-08T22:41:37.794Z,95770.75
2022-12-08T22:44:07.976Z,95766.47
2022-12-08T22:46:35.031Z,95775.50
2022-12-08T22:49:01.591Z,95767.59
2022-12-08T22:51:28.037Z,95763.94
2022-12-08T22:53:54.530Z,95771.53
2022-12-08T22:56:21.015Z,95765.84
2022-12-08T22:58:47.827Z,95768.91
2022-12-08T23:01:26.828Z,95774.53
2022-12-08T23:03:53.545Z,95772.97
2022-12-08T23:06:20.392Z,95767.28
2022-12-08T23:08:47.276Z,95760.88
2022-12-08T23:11:14.400Z,95766.47
2022-12-08T23:13:40.948Z,95764.09
2022-12-08T23:16:09.185Z,95755.25
2022-12-08T23:18:36.579Z,95759.75
2022-12-08T23:21:09.126Z,95756.75
2022-12-08T23:23:36.146Z,95753.19
2022-12-08T23:26:03.460Z,95753.66
2022-12-08T23:28:30.150Z,95742.91
2022-12-08T23:30:56.800Z,95743.13
2022-12-08T23:33:23.399Z,95744.97
2022-12-08T23:35:57.656Z,95744.09
2022-12-08T23:38:25.393Z,95732.69
2022-12-08T23:40:52.684Z,95738.56
2022-12-08T23:43:19.362Z,95746.84
2022-12-08T23:45:49.066Z,95734.34
2022-12-08T23:48:15.567Z,95738.69
2022-12-08T23:50:42.030Z,95733.88
2022-12-08T23:53:08.523Z,95737.72
2022-12-08T23:55:35.202Z,95737.50
2022-12-08T23:58:01.921Z,95734.97
